createdAt,value
2018-05-11T00:00:09.990Z,27.40
2018-05-11T00:01:09.987Z,22.80
2018-05-11T00:02:12.809Z,23.70
2018-05-11T00:03:09.989Z,20.40
2018-05-11T00:04:09.994Z,24.80
2018-05-11T00:05:09.991Z,21.70
2018-05-11T00:06:09.992Z,22.70
2018-05-11T00:07:09.993Z,25.50
2018-05-11T00:08:09.995Z,21.50
2018-05-11T00:09:09.996Z,19.80
2018-05-11T00:10:09.996Z,23.30
2018-05-11T00:11:09.996Z,24.80
2018-05-11T00:12:10.001Z,26.30
2018-05-11T00:13:10.020Z,26.30
2018-05-11T00:14:10.000Z,22.30
2018-05-11T00:15:10.005Z,22.00
2018-05-11T00:16:10.013Z,22.00
2018-05-11T00:17:10.005Z,21.00
2018-05-11T00:18:10.015Z,23.80
2018-05-11T00:19:10.015Z,22.80
2018-05-11T00:20:10.015Z,24.70
2018-05-11T00:21:10.006Z,21.50
2018-05-11T00:22:10.009Z,24.00
2018-05-11T00:23:10.009Z,25.00
2018-05-11T00:24:10.031Z,23.90
2018-05-11T00:25:10.017Z,22.70
2018-05-11T00:26:10.011Z,20.70
2018-05-11T00:27:10.011Z,19.60
2018-05-11T00:28:10.015Z,26.20
2018-05-11T00:29:10.014Z,21.10
2018-05-11T00:30:10.016Z,21.80
2018-05-11T00:31:10.016Z,24.00
2018-05-11T00:32:10.017Z,23.20
2018-05-11T00:33:10.018Z,25.70
2018-05-11T00:34:10.019Z,22.10
2018-05-11T00:35:10.021Z,22.00
2018-05-11T00:36:10.021Z,22.90
2018-05-11T00:37:10.022Z,27.70
2018-05-11T00:38:10.025Z,22.30
2018-05-11T00:39:10.029Z,24.90
2018-05-11T00:40:10.024Z,23.30
2018-05-11T00:41:10.025Z,29.20
2018-05-11T00:42:10.027Z,22.30
2018-05-11T00:43:10.027Z,20.50
2018-05-11T00:44:10.029Z,24.90
2018-05-11T00:45:10.040Z,23.40
2018-05-11T00:46:10.032Z,24.90
2018-05-11T00:47:10.030Z,21.30
2018-05-11T00:48:10.033Z,24.30
2018-05-11T00:49:10.033Z,23.80
2018-05-11T00:50:10.036Z,22.70
2018-05-11T00:51:10.069Z,21.70
2018-05-11T00:52:10.035Z,29.80
2018-05-11T00:53:10.038Z,22.90
2018-05-11T00:54:10.043Z,24.50
2018-05-11T00:55:10.037Z,21.90
2018-05-11T00:56:10.057Z,22.30
2018-05-11T00:57:10.043Z,23.10
2018-05-11T00:58:10.077Z,21.60
2018-05-11T00:59:10.041Z,19.90
2018-05-11T01:00:10.043Z,21.50
2018-05-11T01:01:10.043Z,22.70
2018-05-11T01:02:10.110Z,24.40
2018-05-11T01:03:10.045Z,25.10
2018-05-11T01:04:10.045Z,23.00
2018-05-11T01:05:10.046Z,23.70
2018-05-11T01:06:10.048Z,22.10
2018-05-11T01:07:10.048Z,26.50
2018-05-11T01:08:10.050Z,24.50
2018-05-11T01:09:10.050Z,24.70
2018-05-11T01:10:10.057Z,22.50
2018-05-11T01:11:10.051Z,21.00
2018-05-11T01:12:10.052Z,23.30
2018-05-11T01:13:10.053Z,25.00
2018-05-11T01:14:10.064Z,22.10
2018-05-11T01:15:10.054Z,24.20
2018-05-11T01:16:10.055Z,23.90
2018-05-11T01:17:10.057Z,21.50
2018-05-11T01:18:10.058Z,25.40
2018-05-11T01:19:10.058Z,24.50
2018-05-11T01:20:10.061Z,25.70
2018-05-11T01:21:10.060Z,22.70
2018-05-11T01:22:10.063Z,24.90
2018-05-11T01:23:10.062Z,23.70
2018-05-11T01:24:10.064Z,24.00
2018-05-11T01:25:10.064Z,21.80
2018-05-11T01:26:10.071Z,23.20
2018-05-11T01:27:10.065Z,27.40
2018-05-11T01:28:10.069Z,26.90
2018-05-11T01:29:10.072Z,24.30
2018-05-11T01:30:10.068Z,27.50
2018-05-11T01:31:10.103Z,23.50
2018-05-11T01:32:10.259Z,23.50
2018-05-11T01:33:10.070Z,24.20
2018-05-11T01:34:10.071Z,23.80
2018-05-11T01:35:10.071Z,33.00
2018-05-11T01:36:10.074Z,24.50
2018-05-11T01:37:10.075Z,23.60
2018-05-11T01:38:10.075Z,21.60
2018-05-11T01:39:10.075Z,22.80
2018-05-11T01:40:10.077Z,25.90
2018-05-11T01:41:10.078Z,26.50
2018-05-11T01:42:10.079Z,27.30
2018-05-11T01:43:10.078Z,26.60
2018-05-11T01:44:10.081Z,27.70
2018-05-11T01:45:10.088Z,27.00
2018-05-11T01:46:10.081Z,23.70
2018-05-11T01:47:10.084Z,25.30
2018-05-11T01:48:10.082Z,25.60
2018-05-11T01:49:10.083Z,27.30
2018-05-11T01:50:10.085Z,24.70
2018-05-11T01:51:10.086Z,22.50
2018-05-11T01:52:10.089Z,20.80
2018-05-11T01:53:10.088Z,29.10
2018-05-11T01:54:10.088Z,23.00
2018-05-11T01:55:10.090Z,25.50
2018-05-11T01:56:10.092Z,25.20
2018-05-11T01:57:10.091Z,25.40
2018-05-11T01:58:10.092Z,27.80
2018-05-11T01:59:10.092Z,25.90
2018-05-11T02:00:10.093Z,27.90
2018-05-11T02:01:10.097Z,27.90
2018-05-11T02:02:10.097Z,29.00
2018-05-11T02:03:10.637Z,24.60
2018-05-11T02:04:10.145Z,24.30
2018-05-11T02:05:10.096Z,25.00
2018-05-11T02:06:10.101Z,27.90
2018-05-11T02:07:10.100Z,31.00
2018-05-11T02:08:10.099Z,29.20
2018-05-11T02:09:10.102Z,29.30
2018-05-11T02:10:10.101Z,31.60
2018-05-11T02:11:10.102Z,28.00
2018-05-11T02:12:10.103Z,29.00
2018-05-11T02:13:10.106Z,28.90
2018-05-11T02:14:10.104Z,30.00
2018-05-11T02:15:10.103Z,30.40
2018-05-11T02:16:10.105Z,26.90
2018-05-11T02:17:10.106Z,31.00
2018-05-11T02:18:10.107Z,30.50
2018-05-11T02:19:10.107Z,29.60
2018-05-11T02:20:10.114Z,28.70
2018-05-11T02:21:10.143Z,31.10
2018-05-11T02:22:10.109Z,30.20
2018-05-11T02:23:10.109Z,31.90
2018-05-11T02:24:10.168Z,29.60
2018-05-11T02:25:10.111Z,27.00
2018-05-11T02:26:10.113Z,29.90
2018-05-11T02:27:10.112Z,31.90
2018-05-11T02:28:10.122Z,33.10
2018-05-11T02:29:10.113Z,30.30
2018-05-11T02:30:10.114Z,29.70
2018-05-11T02:31:10.115Z,34.30
2018-05-11T02:32:10.118Z,35.10
2018-05-11T02:33:10.116Z,35.00
2018-05-11T02:34:11.038Z,32.70
2018-05-11T02:35:10.116Z,31.90
2018-05-11T02:36:10.119Z,31.30
2018-05-11T02:37:10.118Z,32.50
2018-05-11T02:38:10.118Z,33.70
2018-05-11T02:39:10.121Z,32.70
2018-05-11T02:40:10.123Z,31.70
2018-05-11T02:41:10.122Z,31.10
2018-05-11T02:42:10.121Z,32.70
2018-05-11T02:43:10.123Z,33.80
2018-05-11T02:44:10.122Z,27.80
2018-05-11T02:45:10.123Z,30.70
2018-05-11T02:46:10.124Z,31.80
2018-05-11T02:47:10.124Z,32.00
2018-05-11T02:48:10.125Z,31.70
2018-05-11T02:49:10.126Z,33.00
2018-05-11T02:50:10.127Z,30.30
2018-05-11T02:51:10.126Z,34.10
2018-05-11T02:52:10.126Z,29.30
2018-05-11T02:53:10.128Z,31.50
2018-05-11T02:54:10.129Z,34.30
2018-05-11T02:55:10.131Z,31.20
2018-05-11T02:56:10.129Z,36.10
2018-05-11T02:57:10.133Z,33.30
2018-05-11T02:58:10.134Z,27.90
2018-05-11T02:59:10.131Z,31.60
2018-05-11T03:00:10.138Z,29.60
2018-05-11T03:01:10.132Z,32.30
2018-05-11T03:02:10.132Z,28.50
2018-05-11T03:03:10.133Z,32.80
2018-05-11T03:04:10.134Z,40.80
2018-05-11T03:05:10.137Z,30.90
2018-05-11T03:06:10.136Z,30.60
2018-05-11T03:07:10.145Z,32.80
2018-05-11T03:08:10.136Z,29.50
2018-05-11T03:09:10.138Z,31.40
2018-05-11T03:10:10.138Z,31.20
2018-05-11T03:11:10.138Z,31.80
2018-05-11T03:12:10.148Z,34.40
2018-05-11T03:13:10.140Z,31.50
2018-05-11T03:14:10.140Z,31.60
2018-05-11T03:15:10.141Z,29.30
2018-05-11T03:16:10.142Z,31.50
2018-05-11T03:17:10.141Z,30.60
2018-05-11T03:18:33.908Z,33.90
2018-05-11T03:19:10.154Z,34.40
2018-05-11T03:20:10.145Z,32.90
2018-05-11T03:21:10.143Z,32.70
2018-05-11T03:22:10.145Z,32.90
2018-05-11T03:23:10.147Z,32.90
2018-05-11T03:24:10.145Z,34.00
2018-05-11T03:25:10.147Z,32.40
2018-05-11T03:26:10.149Z,33.80
2018-05-11T03:27:10.147Z,28.10
2018-05-11T03:28:10.148Z,34.10
2018-05-11T03:29:10.149Z,35.90
2018-05-11T03:30:10.151Z,33.90
2018-05-11T03:31:10.150Z,31.80
2018-05-11T03:32:10.151Z,30.10
2018-05-11T03:33:10.196Z,34.20
2018-05-11T03:34:10.153Z,35.40
2018-05-11T03:35:10.154Z,31.00
2018-05-11T03:36:10.153Z,34.20
2018-05-11T03:37:10.155Z,33.70
2018-05-11T03:38:10.157Z,34.30
2018-05-11T03:39:10.175Z,35.00
2018-05-11T03:40:10.154Z,37.20
2018-05-11T03:41:10.163Z,34.30
2018-05-11T03:42:10.157Z,31.60
2018-05-11T03:43:10.158Z,33.60
2018-05-11T03:44:10.158Z,32.90
2018-05-11T03:45:10.160Z,37.10
2018-05-11T03:46:10.160Z,33.80
2018-05-11T03:47:10.162Z,33.10
2018-05-11T03:48:10.164Z,43.00
2018-05-11T03:49:10.162Z,37.10
2018-05-11T03:50:10.165Z,33.20
2018-05-11T03:51:10.162Z,37.20
2018-05-11T03:52:10.163Z,35.70
2018-05-11T03:53:10.165Z,33.10
2018-05-11T03:54:10.167Z,33.80
2018-05-11T03:55:10.165Z,35.50
2018-05-11T03:56:10.166Z,35.50
2018-05-11T03:57:10.169Z,39.50
2018-05-11T03:58:10.168Z,32.10
2018-05-11T03:59:10.166Z,32.50
2018-05-11T04:00:10.168Z,35.90
2018-05-11T04:01:10.168Z,34.60
2018-05-11T04:02:10.169Z,31.00
2018-05-11T04:03:10.171Z,34.40
2018-05-11T04:04:10.177Z,30.80
2018-05-11T04:05:10.173Z,34.80
2018-05-11T04:06:10.177Z,31.60
2018-05-11T04:07:10.199Z,36.90
2018-05-11T04:08:10.173Z,33.80
2018-05-11T04:09:10.174Z,32.80
2018-05-11T04:10:10.173Z,32.70
2018-05-11T04:11:10.177Z,34.30
2018-05-11T04:12:10.179Z,35.00
2018-05-11T04:13:10.238Z,34.60
2018-05-11T04:14:10.177Z,34.90
2018-05-11T04:15:10.178Z,35.30
2018-05-11T04:16:10.181Z,33.20
2018-05-11T04:17:10.180Z,31.60
2018-05-11T04:18:10.180Z,34.40
2018-05-11T04:19:10.180Z,36.10
2018-05-11T04:20:10.181Z,41.00
2018-05-11T04:21:10.183Z,34.60
2018-05-11T04:22:10.183Z,35.00
2018-05-11T04:23:10.185Z,37.20
2018-05-11T04:24:10.187Z,35.90
2018-05-11T04:25:10.186Z,37.00
2018-05-11T04:26:10.187Z,35.10
2018-05-11T04:27:10.187Z,38.30
2018-05-11T04:28:10.186Z,36.40
2018-05-11T04:29:10.187Z,34.00
2018-05-11T04:30:10.255Z,37.30
2018-05-11T04:31:10.190Z,36.40
2018-05-11T04:32:10.189Z,36.40
2018-05-11T04:33:10.190Z,37.40
2018-05-11T04:34:10.195Z,37.60
2018-05-11T04:35:10.189Z,36.00
2018-05-11T04:36:10.192Z,37.20
2018-05-11T04:37:10.587Z,40.20
2018-05-11T04:38:10.196Z,40.30
2018-05-11T04:39:10.197Z,46.60
2018-05-11T04:40:10.193Z,38.50
2018-05-11T04:41:10.195Z,38.90
2018-05-11T04:42:10.196Z,36.70
2018-05-11T04:43:10.195Z,34.40
2018-05-11T04:44:10.201Z,36.80
2018-05-11T04:45:10.200Z,35.70
2018-05-11T04:46:10.200Z,36.00
2018-05-11T04:47:10.202Z,34.10
2018-05-11T04:48:10.216Z,34.20
2018-05-11T04:49:10.203Z,33.90
2018-05-11T04:50:10.203Z,33.00
2018-05-11T04:51:10.208Z,36.40
2018-05-11T04:52:10.203Z,31.90
2018-05-11T04:53:10.202Z,36.50
2018-05-11T04:54:10.225Z,32.30
2018-05-11T04:55:10.216Z,30.70
2018-05-11T04:56:10.203Z,30.40
2018-05-11T04:57:10.208Z,34.70
2018-05-11T04:58:10.205Z,35.10
2018-05-11T04:59:10.206Z,37.40
2018-05-11T05:00:10.206Z,37.10
2018-05-11T05:01:10.212Z,33.40
2018-05-11T05:02:10.207Z,38.30
2018-05-11T05:03:10.212Z,36.50
2018-05-11T05:04:10.209Z,37.00
2018-05-11T05:05:10.214Z,37.80
2018-05-11T05:06:10.211Z,33.60
2018-05-11T05:07:10.210Z,41.00
2018-05-11T05:08:10.936Z,33.50
2018-05-11T05:09:10.211Z,32.60
2018-05-11T05:10:10.212Z,34.20
2018-05-11T05:11:10.219Z,33.60
2018-05-11T05:12:10.216Z,37.20
2018-05-11T05:13:10.214Z,30.30
2018-05-11T05:14:10.218Z,30.00
2018-05-11T05:15:10.215Z,31.80
2018-05-11T05:16:10.245Z,35.20
2018-05-11T05:17:10.237Z,31.90
2018-05-11T05:18:10.223Z,31.70
2018-05-11T05:19:10.267Z,33.20
2018-05-11T05:20:10.220Z,32.90
2018-05-11T05:21:10.221Z,31.00
2018-05-11T05:22:10.223Z,33.60
2018-05-11T05:23:10.223Z,32.50
2018-05-11T05:24:10.227Z,30.80
2018-05-11T05:25:10.227Z,28.60
2018-05-11T05:26:10.228Z,31.90
2018-05-11T05:27:10.230Z,30.60
2018-05-11T05:28:10.232Z,28.40
2018-05-11T05:29:10.233Z,31.60
2018-05-11T05:30:10.267Z,34.20
2018-05-11T05:31:10.234Z,30.60
2018-05-11T05:32:10.240Z,31.40
2018-05-11T05:33:10.312Z,33.10
2018-05-11T05:34:10.283Z,30.10
2018-05-11T05:35:10.240Z,29.60
2018-05-11T05:36:10.244Z,32.10
2018-05-11T05:37:10.243Z,26.80
2018-05-11T05:38:10.245Z,26.10
2018-05-11T05:39:10.286Z,27.60
2018-05-11T05:40:10.247Z,27.40
2018-05-11T05:41:10.253Z,31.40
2018-05-11T05:42:10.251Z,25.40
2018-05-11T05:43:10.250Z,25.60
2018-05-11T05:44:10.253Z,25.90
2018-05-11T05:45:10.254Z,26.50
2018-05-11T05:46:10.258Z,25.80
2018-05-11T05:47:10.256Z,27.50
2018-05-11T05:48:10.257Z,22.10
2018-05-11T05:49:10.259Z,47.90
2018-05-11T05:50:10.261Z,25.20
2018-05-11T05:51:10.262Z,20.80
2018-05-11T05:52:10.334Z,25.20
2018-05-11T05:53:10.268Z,24.80
2018-05-11T05:54:10.266Z,24.10
2018-05-11T05:55:10.268Z,21.90
2018-05-11T05:56:10.271Z,24.20
2018-05-11T05:57:10.280Z,31.10
2018-05-11T05:58:10.280Z,30.50
2018-05-11T05:59:10.272Z,71.00
2018-05-11T06:00:10.275Z,28.80
2018-05-11T06:01:10.279Z,31.00
2018-05-11T06:02:10.280Z,91.70
2018-05-11T06:03:10.278Z,34.30
2018-05-11T06:04:10.279Z,23.20
2018-05-11T06:05:10.280Z,18.10
2018-05-11T06:06:10.283Z,23.80
2018-05-11T06:07:10.288Z,22.60
2018-05-11T06:08:10.371Z,27.30
2018-05-11T06:09:10.286Z,19.80
2018-05-11T06:10:10.291Z,17.80
2018-05-11T06:11:10.300Z,21.50
2018-05-11T06:12:10.290Z,21.80
2018-05-11T06:13:10.296Z,23.00
2018-05-11T06:14:10.298Z,25.00
2018-05-11T06:15:10.295Z,19.40
2018-05-11T06:16:10.297Z,18.10
2018-05-11T06:17:10.305Z,17.60
2018-05-11T06:18:10.298Z,20.30
2018-05-11T06:19:10.299Z,18.90
2018-05-11T06:20:10.299Z,20.70
2018-05-11T06:21:10.305Z,17.40
2018-05-11T06:22:10.303Z,17.50
2018-05-11T06:23:10.339Z,19.70
2018-05-11T06:24:10.314Z,17.30
2018-05-11T06:25:10.308Z,15.90
2018-05-11T06:26:10.308Z,16.40
2018-05-11T06:27:10.310Z,16.70
2018-05-11T06:28:10.315Z,15.60
2018-05-11T06:29:10.313Z,16.00
2018-05-11T06:30:10.315Z,21.20
2018-05-11T06:31:10.319Z,16.20
2018-05-11T06:32:10.319Z,14.00
2018-05-11T06:33:10.318Z,20.40
2018-05-11T06:34:10.320Z,19.70
2018-05-11T06:35:10.396Z,19.20
2018-05-11T06:36:10.496Z,17.50
2018-05-11T06:37:10.386Z,13.60
2018-05-11T06:38:10.363Z,19.40
2018-05-11T06:39:10.341Z,17.10
2018-05-11T06:40:10.327Z,18.50
2018-05-11T06:41:10.329Z,19.60
2018-05-11T06:42:10.409Z,119.60
2018-05-11T06:43:10.367Z,83.70
2018-05-11T06:44:10.335Z,31.00
2018-05-11T06:45:10.334Z,13.60
2018-05-11T06:46:10.335Z,17.10
2018-05-11T06:47:10.336Z,17.10
2018-05-11T06:48:10.338Z,17.50
2018-05-11T06:49:10.338Z,17.90
2018-05-11T06:50:10.340Z,17.40
2018-05-11T06:51:10.347Z,17.40
2018-05-11T06:52:10.342Z,14.10
2018-05-11T06:53:10.346Z,15.60
2018-05-11T06:54:10.348Z,18.10
2018-05-11T06:55:10.351Z,19.10
2018-05-11T06:56:10.347Z,13.90
2018-05-11T06:57:10.356Z,26.50
2018-05-11T06:58:10.352Z,21.60
2018-05-11T06:59:10.377Z,18.40
2018-05-11T07:00:10.364Z,15.60
2018-05-11T07:01:10.388Z,13.10
2018-05-11T07:02:10.364Z,21.00
2018-05-11T07:03:10.355Z,17.10
2018-05-11T07:04:10.356Z,12.60
2018-05-11T07:05:10.379Z,15.60
2018-05-11T07:06:10.368Z,17.30
2018-05-11T07:07:10.360Z,15.60
2018-05-11T07:08:10.362Z,14.80
2018-05-11T07:09:10.385Z,14.80
2018-05-11T07:10:10.378Z,15.80
2018-05-11T07:11:10.528Z,18.10
2018-05-11T07:12:10.366Z,20.90
2018-05-11T07:13:10.368Z,18.70
2018-05-11T07:14:10.411Z,15.40
2018-05-11T07:15:10.376Z,14.60
2018-05-11T07:16:10.372Z,14.70
2018-05-11T07:17:10.375Z,14.00
2018-05-11T07:18:10.377Z,12.00
2018-05-11T07:19:10.386Z,15.90
2018-05-11T07:20:10.378Z,14.10
2018-05-11T07:21:10.378Z,16.50
2018-05-11T07:22:10.381Z,13.60
2018-05-11T07:23:10.382Z,11.60
2018-05-11T07:24:10.384Z,16.00
2018-05-11T07:25:10.385Z,12.30
2018-05-11T07:26:10.393Z,15.00
2018-05-11T07:27:10.434Z,15.10
2018-05-11T07:28:10.391Z,14.30
2018-05-11T07:29:10.393Z,14.20
2018-05-11T07:30:10.395Z,13.30
2018-05-11T07:31:10.394Z,11.90
2018-05-11T07:32:10.395Z,12.40
2018-05-11T07:33:10.430Z,9.80
2018-05-11T07:34:10.401Z,15.60
2018-05-11T07:35:10.401Z,18.10
2018-05-11T07:36:10.403Z,12.20
2018-05-11T07:37:10.405Z,16.50
2018-05-11T07:38:10.406Z,11.40
2018-05-11T07:39:10.409Z,12.10
2018-05-11T07:40:10.410Z,15.60
2018-05-11T07:41:10.412Z,11.20
2018-05-11T07:42:10.872Z,12.30
2018-05-11T07:43:10.531Z,13.70
2018-05-11T07:44:10.415Z,11.50
2018-05-11T07:45:10.470Z,14.40
2018-05-11T07:46:10.419Z,12.10
2018-05-11T07:47:10.421Z,13.70
2018-05-11T07:48:10.425Z,10.30
2018-05-11T07:49:10.424Z,14.30
2018-05-11T07:50:10.431Z,14.10
2018-05-11T07:51:10.436Z,9.10
2018-05-11T07:52:10.446Z,16.00
2018-05-11T07:53:10.432Z,16.40
2018-05-11T07:54:10.435Z,14.10
2018-05-11T07:55:10.435Z,12.30
2018-05-11T07:56:10.436Z,11.80
2018-05-11T07:57:10.445Z,13.50
2018-05-11T07:58:10.441Z,15.20
2018-05-11T07:59:10.441Z,13.80
2018-05-11T08:00:10.446Z,8.80
2018-05-11T08:01:10.445Z,12.30
2018-05-11T08:02:10.456Z,13.40
2018-05-11T08:03:10.451Z,15.20
2018-05-11T08:04:10.450Z,12.30
2018-05-11T08:05:10.450Z,14.10
2018-05-11T08:06:10.455Z,19.00
2018-05-11T08:07:10.457Z,14.60
2018-05-11T08:08:10.458Z,12.90
2018-05-11T08:09:10.456Z,14.40
2018-05-11T08:10:10.463Z,13.90
2018-05-11T08:11:10.459Z,12.80
2018-05-11T08:12:10.468Z,13.80
2018-05-11T08:13:11.247Z,12.50
2018-05-11T08:14:10.512Z,15.60
2018-05-11T08:15:10.467Z,15.40
2018-05-11T08:16:10.477Z,12.50
2018-05-11T08:17:10.470Z,14.00
2018-05-11T08:18:10.473Z,12.50
2018-05-11T08:19:10.481Z,14.00
2018-05-11T08:20:10.476Z,12.50
2018-05-11T08:21:10.478Z,12.00
2018-05-11T08:22:10.480Z,13.10
2018-05-11T08:23:10.480Z,14.10
2018-05-11T08:24:10.484Z,17.00
2018-05-11T08:25:10.486Z,14.00
2018-05-11T08:26:10.489Z,15.50
2018-05-11T08:27:10.490Z,16.50
2018-05-11T08:28:10.492Z,11.70
2018-05-11T08:29:10.494Z,11.50
2018-05-11T08:30:10.495Z,15.00
2018-05-11T08:31:10.571Z,14.40
2018-05-11T08:32:10.499Z,16.80
2018-05-11T08:33:10.504Z,17.10
2018-05-11T08:34:10.503Z,14.30
2018-05-11T08:35:10.504Z,11.90
2018-05-11T08:36:10.524Z,14.00
2018-05-11T08:37:10.512Z,14.00
2018-05-11T08:38:10.511Z,14.30
2018-05-11T08:39:10.514Z,14.80
2018-05-11T08:40:10.515Z,12.80
2018-05-11T08:41:10.519Z,14.30
2018-05-11T08:42:10.523Z,15.20
2018-05-11T08:43:10.523Z,15.10
2018-05-11T08:44:10.523Z,10.80
2018-05-11T08:45:10.525Z,15.10
2018-05-11T08:46:10.527Z,11.50
2018-05-11T08:47:10.534Z,13.60
2018-05-11T08:48:10.531Z,11.40
2018-05-11T08:49:10.536Z,15.70
2018-05-11T08:50:10.536Z,13.90
2018-05-11T08:51:10.536Z,14.20
2018-05-11T08:52:10.550Z,12.50
2018-05-11T08:53:10.543Z,9.60
2018-05-11T08:54:10.544Z,12.80
2018-05-11T08:55:10.548Z,12.80
2018-05-11T08:56:10.547Z,10.80
2018-05-11T08:57:10.618Z,16.10
2018-05-11T08:58:10.552Z,10.60
2018-05-11T08:59:10.553Z,12.70
2018-05-11T09:00:10.555Z,11.50
2018-05-11T09:01:10.560Z,10.90
2018-05-11T09:02:10.566Z,11.30
2018-05-11T09:03:10.564Z,12.40
2018-05-11T09:04:10.565Z,10.70
2018-05-11T09:05:10.568Z,16.20
2018-05-11T09:06:10.569Z,15.10
2018-05-11T09:07:10.571Z,13.40
2018-05-11T09:08:10.573Z,18.20
2018-05-11T09:09:10.577Z,14.80
2018-05-11T09:10:10.581Z,12.50
2018-05-11T09:11:10.592Z,13.30
2018-05-11T09:12:10.584Z,14.60
2018-05-11T09:13:10.587Z,14.40
2018-05-11T09:14:10.595Z,10.70
2018-05-11T09:15:10.590Z,12.00
2018-05-11T09:16:10.594Z,12.00
2018-05-11T09:17:10.595Z,15.30
2018-05-11T09:18:10.604Z,13.70
2018-05-11T09:19:10.603Z,9.30
2018-05-11T09:20:10.610Z,18.60
2018-05-11T09:21:10.608Z,11.60
2018-05-11T09:22:10.612Z,12.30
2018-05-11T09:23:10.614Z,14.50
2018-05-11T09:24:10.612Z,11.90
2018-05-11T09:25:10.612Z,10.80
2018-05-11T09:26:10.622Z,14.10
2018-05-11T09:27:10.616Z,13.00
2018-05-11T09:28:10.620Z,10.90
2018-05-11T09:29:10.647Z,15.40
2018-05-11T09:30:10.625Z,18.10
2018-05-11T09:31:10.626Z,17.00
2018-05-11T09:32:10.630Z,12.60
2018-05-11T09:33:10.633Z,13.20
2018-05-11T09:34:10.637Z,11.20
2018-05-11T09:35:10.636Z,14.50
2018-05-11T09:36:10.638Z,17.00
2018-05-11T09:37:10.688Z,12.80
2018-05-11T09:38:10.644Z,11.80
2018-05-11T09:39:10.648Z,11.60
2018-05-11T09:40:10.655Z,9.40
2018-05-11T09:41:10.657Z,10.20
2018-05-11T09:42:10.658Z,13.90
2018-05-11T09:43:10.657Z,14.80
2018-05-11T09:44:10.710Z,10.20
2018-05-11T09:45:12.015Z,13.40
2018-05-11T09:46:10.675Z,12.40
2018-05-11T09:47:10.668Z,14.20
2018-05-11T09:48:10.682Z,11.70
2018-05-11T09:49:10.674Z,11.30
2018-05-11T09:50:10.678Z,11.70
2018-05-11T09:51:10.683Z,10.90
2018-05-11T09:52:10.690Z,11.10
2018-05-11T09:53:10.687Z,13.10
2018-05-11T09:54:10.692Z,11.40
2018-05-11T09:55:10.789Z,15.20
2018-05-11T09:56:10.700Z,13.30
2018-05-11T09:57:10.705Z,15.70
2018-05-11T09:58:10.706Z,11.50
2018-05-11T09:59:10.710Z,8.90
2018-05-11T10:00:10.713Z,12.60
2018-05-11T10:01:10.717Z,11.90
2018-05-11T10:02:10.725Z,11.70
2018-05-11T10:03:10.729Z,12.90
2018-05-11T10:04:10.742Z,10.90
2018-05-11T10:05:10.787Z,9.50
2018-05-11T10:06:10.734Z,12.00
2018-05-11T10:07:10.738Z,11.00
2018-05-11T10:08:10.742Z,13.00
2018-05-11T10:09:10.761Z,13.00
2018-05-11T10:10:10.749Z,12.10
2018-05-11T10:11:10.753Z,13.10
2018-05-11T10:12:10.755Z,16.70
2018-05-11T10:13:10.768Z,11.80
2018-05-11T10:14:10.763Z,12.20
2018-05-11T10:15:10.764Z,16.20
2018-05-11T10:16:10.831Z,16.10
2018-05-11T10:17:10.771Z,11.10
2018-05-11T10:18:10.774Z,15.10
2018-05-11T10:19:10.778Z,12.10
2018-05-11T10:20:10.785Z,14.00
2018-05-11T10:21:10.784Z,12.30
2018-05-11T10:22:10.789Z,11.30
2018-05-11T10:23:10.791Z,10.60
2018-05-11T10:24:10.809Z,13.90
2018-05-11T10:25:10.799Z,9.80
2018-05-11T10:26:10.807Z,11.70
2018-05-11T10:27:10.809Z,16.10
2018-05-11T10:28:10.878Z,11.10
2018-05-11T10:29:10.894Z,10.50
2018-05-11T10:30:10.827Z,12.00
2018-05-11T10:31:10.832Z,17.30
2018-05-11T10:32:10.887Z,10.20
2018-05-11T10:33:10.847Z,14.50
2018-05-11T10:34:10.856Z,16.10
2018-05-11T10:35:10.864Z,15.70
2018-05-11T10:36:10.869Z,14.20
2018-05-11T10:37:10.924Z,15.40
2018-05-11T10:38:10.887Z,14.10
2018-05-11T10:39:10.898Z,14.50
2018-05-11T10:40:10.914Z,10.30
2018-05-11T10:41:10.915Z,9.60
2018-05-11T10:42:10.927Z,11.40
2018-05-11T10:43:10.934Z,10.80
2018-05-11T10:44:10.947Z,12.50
2018-05-11T10:45:10.962Z,10.20
2018-05-11T10:46:10.965Z,15.90
2018-05-11T10:47:11.276Z,14.50
2018-05-11T10:48:10.991Z,11.10
2018-05-11T10:49:10.997Z,11.80
2018-05-11T10:50:11.009Z,13.00
2018-05-11T10:51:11.018Z,11.10
2018-05-11T10:52:11.029Z,13.20
2018-05-11T10:53:11.041Z,17.70
2018-05-11T10:54:11.053Z,11.60
2018-05-11T10:55:11.072Z,13.80
2018-05-11T10:56:11.076Z,11.50
2018-05-11T10:57:19.025Z,10.70
2018-05-11T10:58:11.112Z,12.50
2018-05-11T10:59:11.221Z,12.60
2018-05-11T11:00:11.151Z,8.40
2018-05-11T11:01:11.169Z,11.00
2018-05-11T11:02:11.166Z,11.50
2018-05-11T11:03:11.164Z,14.90
2018-05-11T11:04:11.172Z,9.80
2018-05-11T11:05:11.234Z,8.50
2018-05-11T11:06:11.267Z,13.00
2018-05-11T11:07:11.217Z,29.40
2018-05-11T11:08:11.228Z,28.30
2018-05-11T11:09:11.245Z,15.70
2018-05-11T11:10:11.335Z,11.60
2018-05-11T11:11:11.270Z,14.60
2018-05-11T11:12:11.280Z,14.70
2018-05-11T11:13:11.339Z,11.00
2018-05-11T11:14:11.323Z,12.40
2018-05-11T11:15:11.320Z,11.60
2018-05-11T11:16:12.993Z,13.60
2018-05-11T11:17:12.996Z,12.40
2018-05-11T11:18:13.003Z,13.60
2018-05-11T11:19:11.381Z,11.40
2018-05-11T11:20:11.436Z,7.60
2018-05-11T11:21:11.416Z,7.70
2018-05-11T11:22:11.452Z,10.60
2018-05-11T11:23:14.000Z,13.30
2018-05-11T11:24:11.466Z,11.20
2018-05-11T11:25:11.570Z,11.40
2018-05-11T11:26:11.470Z,11.90
2018-05-11T11:27:11.491Z,14.10
2018-05-11T11:28:11.542Z,13.40
2018-05-11T11:29:11.510Z,12.10
2018-05-11T11:30:11.520Z,13.70
2018-05-11T11:31:11.548Z,10.30
2018-05-11T11:32:11.580Z,15.00
2018-05-11T11:33:11.564Z,13.80
2018-05-11T11:34:11.562Z,11.10
2018-05-11T11:35:11.571Z,13.00
2018-05-11T11:36:11.585Z,11.50
2018-05-11T11:37:11.595Z,12.30
2018-05-11T11:38:11.608Z,10.00
2018-05-11T11:39:11.613Z,13.00
2018-05-11T11:40:11.646Z,12.40
2018-05-11T11:41:11.636Z,9.90
2018-05-11T11:42:11.729Z,12.60
2018-05-11T11:43:11.651Z,14.40
2018-05-11T11:44:11.753Z,11.00
2018-05-11T11:45:11.924Z,11.80
2018-05-11T11:46:11.713Z,13.50
2018-05-11T11:47:11.697Z,11.70
2018-05-11T11:48:11.735Z,13.00
2018-05-11T11:49:12.024Z,10.10
2018-05-11T11:50:11.718Z,12.60
2018-05-11T11:51:11.725Z,11.20
2018-05-11T11:52:11.729Z,13.00
2018-05-11T11:53:11.747Z,11.20
2018-05-11T11:54:11.760Z,10.80
2018-05-11T11:55:11.756Z,11.90
2018-05-11T11:56:11.777Z,10.50
2018-05-11T11:57:11.772Z,14.90
2018-05-11T11:58:11.783Z,9.20
2018-05-11T11:59:11.793Z,11.00
2018-05-11T12:00:11.830Z,12.70
2018-05-11T12:01:11.804Z,12.40
2018-05-11T12:02:11.811Z,16.90
2018-05-11T12:03:11.819Z,11.10
2018-05-11T12:04:11.827Z,11.60
2018-05-11T12:05:11.836Z,11.60
2018-05-11T12:06:11.843Z,14.50
2018-05-11T12:07:11.850Z,12.00
2018-05-11T12:08:11.881Z,22.60
2018-05-11T12:09:11.947Z,9.30
2018-05-11T12:10:11.913Z,11.50
2018-05-11T12:11:11.883Z,14.00
2018-05-11T12:12:11.915Z,11.20
2018-05-11T12:13:11.942Z,11.70
2018-05-11T12:14:11.935Z,13.70
2018-05-11T12:15:11.936Z,9.90
2018-05-11T12:16:11.930Z,13.40
2018-05-11T12:17:11.952Z,14.70
2018-05-11T12:18:11.937Z,11.20
2018-05-11T12:19:11.994Z,11.50
2018-05-11T12:20:12.560Z,9.50
2018-05-11T12:21:11.960Z,10.40
2018-05-11T12:22:12.254Z,10.50
2018-05-11T12:23:12.023Z,13.40
2018-05-11T12:24:11.992Z,13.00
2018-05-11T12:25:12.035Z,12.90
2018-05-11T12:26:11.995Z,9.20
2018-05-11T12:27:11.999Z,13.40
2018-05-11T12:28:12.004Z,9.40
2018-05-11T12:29:12.006Z,11.60
2018-05-11T12:30:12.044Z,12.40
2018-05-11T12:31:12.025Z,9.10
2018-05-11T12:32:12.025Z,9.60
2018-05-11T12:33:12.033Z,11.30
2018-05-11T12:34:12.048Z,11.50
2018-05-11T12:35:12.151Z,9.40
2018-05-11T12:36:12.157Z,10.60
2018-05-11T12:37:12.063Z,10.50
2018-05-11T12:38:12.070Z,8.90
2018-05-11T12:39:12.071Z,10.40
2018-05-11T12:40:12.076Z,11.10
2018-05-11T12:41:12.120Z,11.90
2018-05-11T12:42:12.095Z,11.90
2018-05-11T12:43:12.111Z,11.00
2018-05-11T12:44:12.117Z,8.70
2018-05-11T12:45:12.157Z,10.00
2018-05-11T12:46:12.125Z,8.10
2018-05-11T12:47:12.126Z,9.30
2018-05-11T12:48:12.130Z,12.70
2018-05-11T12:49:12.133Z,11.50
2018-05-11T12:50:12.151Z,10.30
2018-05-11T12:51:12.938Z,13.00
2018-05-11T12:52:12.151Z,11.70
2018-05-11T12:53:12.164Z,12.30